sensor_id;sensor_type;location;lat;lon;timestamp;temperature;humidity
8709;DHT22;4391;48.678;9.280;2022-09-09T00:00:47;12.20;99.90
8709;DHT22;4391;48.678;9.280;2022-09-09T00:03:17;12.20;99.90
8709;DHT22;4391;48.678;9.280;2022-09-09T00:05:54;12.10;99.90
8709;DHT22;4391;48.678;9.280;2022-09-09T00:08:29;12.10;99.90
8709;DHT22;4391;48.678;9.280;2022-09-09T00:11:03;12.10;99.90
8709;DHT22;4391;48.678;9.280;2022-09-09T00:13:35;12.10;99.90
8709;DHT22;4391;48.678;9.280;2022-09-09T00:16:08;12.10;99.90
8709;DHT22;4391;48.678;9.280;2022-09-09T00:18:50;12.10;99.90
8709;DHT22;4391;48.678;9.280;2022-09-09T00:21:20;12.10;99.90
8709;DHT22;4391;48.678;9.280;2022-09-09T00:23:51;12.00;99.90
8709;DHT22;4391;48.678;9.280;2022-09-09T00:26:24;12.10;99.90
8709;DHT22;4391;48.678;9.280;2022-09-09T00:29:05;12.10;99.90
8709;DHT22;4391;48.678;9.280;2022-09-09T00:31:36;12.10;99.90
8709;DHT22;4391;48.678;9.280;2022-09-09T00:34:11;12.20;99.90
8709;DHT22;4391;48.678;9.280;2022-09-09T00:36:40;12.20;99.90
8709;DHT22;4391;48.678;9.280;2022-09-09T00:39:12;12.30;99.90
8709;DHT22;4391;48.678;9.280;2022-09-09T00:41:50;12.30;99.90
8709;DHT22;4391;48.678;9.280;2022-09-09T00:44:30;12.40;99.90
8709;DHT22;4391;48.678;9.280;2022-09-09T00:47:12;12.50;99.90
8709;DHT22;4391;48.678;9.280;2022-09-09T00:49:52;12.50;99.90
8709;DHT22;4391;48.678;9.280;2022-09-09T00:52:32;12.50;99.90
8709;DHT22;4391;48.678;9.280;2022-09-09T00:55:07;12.60;99.90
8709;DHT22;4391;48.678;9.280;2022-09-09T00:57:36;12.60;99.90
8709;DHT22;4391;48.678;9.280;2022-09-09T01:00:22;12.60;99.90
8709;DHT22;4391;48.678;9.280;2022-09-09T01:03:19;12.60;99.90
8709;DHT22;4391;48.678;9.280;2022-09-09T01:06:00;12.60;99.90
8709;DHT22;4391;48.678;9.280;2022-09-09T01:08:47;12.60;99.90
8709;DHT22;4391;48.678;9.280;2022-09-09T01:11:21;12.60;99.90
8709;DHT22;4391;48.678;9.280;2022-09-09T01:13:55;12.60;99.90
8709;DHT22;4391;48.678;9.280;2022-09-09T01:16:26;12.50;99.90
8709;DHT22;4391;48.678;9.280;2022-09-09T01:18:54;12.50;99.90
8709;DHT22;4391;48.678;9.280;2022-09-09T01:21:27;12.50;99.90
8709;DHT22;4391;48.678;9.280;2022-09-09T01:24:15;12.40;99.90
8709;DHT22;4391;48.678;9.280;2022-09-09T01:26:46;12.40;99.90
8709;DHT22;4391;48.678;9.280;2022-09-09T01:29:18;12.40;99.90
8709;DHT22;4391;48.678;9.280;2022-09-09T01:31:53;12.40;99.90
8709;DHT22;4391;48.678;9.280;2022-09-09T01:34:21;12.30;99.90
8709;DHT22;4391;48.678;9.280;2022-09-09T01:36:55;12.30;99.90
8709;DHT22;4391;48.678;9.280;2022-09-09T01:39:23;12.20;99.90
8709;DHT22;4391;48.678;9.280;2022-09-09T01:41:51;12.20;99.90
8709;DHT22;4391;48.678;9.280;2022-09-09T01:44:19;12.10;99.90
8709;DHT22;4391;48.678;9.280;2022-09-09T01:46:46;12.10;99.90
8709;DHT22;4391;48.678;9.280;2022-09-09T01:49:13;12.00;99.90
8709;DHT22;4391;48.678;9.280;2022-09-09T01:51:41;12.00;99.90
8709;DHT22;4391;48.678;9.280;2022-09-09T01:54:10;12.00;99.90
8709;DHT22;4391;48.678;9.280;2022-09-09T01:56:47;12.00;99.90
8709;DHT22;4391;48.678;9.280;2022-09-09T01:59:27;12.00;99.90
8709;DHT22;4391;48.678;9.280;2022-09-09T02:02:08;12.00;99.90
8709;DHT22;4391;48.678;9.280;2022-09-09T02:04:40;12.10;99.90
8709;DHT22;4391;48.678;9.280;2022-09-09T02:07:19;12.10;99.90
8709;DHT22;4391;48.678;9.280;2022-09-09T02:09:57;12.20;99.90
8709;DHT22;4391;48.678;9.280;2022-09-09T02:12:25;12.20;99.90
8709;DHT22;4391;48.678;9.280;2022-09-09T02:15:00;12.20;99.90
8709;DHT22;4391;48.678;9.280;2022-09-09T02:17:31;12.20;99.90
8709;DHT22;4391;48.678;9.280;2022-09-09T02:20:05;12.10;99.90
8709;DHT22;4391;48.678;9.280;2022-09-09T02:22:35;12.10;99.90
8709;DHT22;4391;48.678;9.280;2022-09-09T02:25:06;12.10;99.90
8709;DHT22;4391;48.678;9.280;2022-09-09T02:27:35;12.10;99.90
8709;DHT22;4391;48.678;9.280;2022-09-09T02:30:04;12.10;99.90
8709;DHT22;4391;48.678;9.280;2022-09-09T02:32:33;12.10;99.90
8709;DHT22;4391;48.678;9.280;2022-09-09T02:35:05;12.30;99.90
8709;DHT22;4391;48.678;9.280;2022-09-09T02:37:38;12.30;96.10
8709;DHT22;4391;48.678;9.280;2022-09-09T02:40:07;12.30;99.90
8709;DHT22;4391;48.678;9.280;2022-09-09T02:42:38;12.20;99.90
8709;DHT22;4391;48.678;9.280;2022-09-09T02:45:09;12.10;99.90
8709;DHT22;4391;48.678;9.280;2022-09-09T02:47:40;12.00;99.90
8709;DHT22;4391;48.678;9.280;2022-09-09T02:50:13;11.90;99.90
8709;DHT22;4391;48.678;9.280;2022-09-09T02:52:47;11.80;99.90
8709;DHT22;4391;48.678;9.280;2022-09-09T02:55:23;11.80;99.90
8709;DHT22;4391;48.678;9.280;2022-09-09T02:57:53;11.70;99.90
8709;DHT22;4391;48.678;9.280;2022-09-09T03:00:26;11.80;99.90
8709;DHT22;4391;48.678;9.280;2022-09-09T03:02:54;11.70;99.90
8709;DHT22;4391;48.678;9.280;2022-09-09T03:05:21;11.70;99.90
8709;DHT22;4391;48.678;9.280;2022-09-09T03:07:49;11.60;99.90
8709;DHT22;4391;48.678;9.280;2022-09-09T03:10:16;11.60;99.90
8709;DHT22;4391;48.678;9.280;2022-09-09T03:12:43;11.60;99.90
8709;DHT22;4391;48.678;9.280;2022-09-09T03:15:10;11.60;99.90
8709;DHT22;4391;48.678;9.280;2022-09-09T03:17:38;11.70;99.90
8709;DHT22;4391;48.678;9.280;2022-09-09T03:20:06;11.70;99.90
8709;DHT22;4391;48.678;9.280;2022-09-09T03:22:34;11.90;99.90
8709;DHT22;4391;48.678;9.280;2022-09-09T03:25:01;12.20;99.90
8709;DHT22;4391;48.678;9.280;2022-09-09T03:27:28;12.40;93.80
8709;DHT22;4391;48.678;9.280;2022-09-09T03:29:55;12.50;75.10
8709;DHT22;4391;48.678;9.280;2022-09-09T03:32:23;12.70;56.70
8709;DHT22;4391;48.678;9.280;2022-09-09T03:34:52;12.80;47.30
8709;DHT22;4391;48.678;9.280;2022-09-09T03:37:20;12.90;26.70
8709;DHT22;4391;48.678;9.280;2022-09-09T03:39:48;12.80;29.60
8709;DHT22;4391;48.678;9.280;2022-09-09T03:42:15;12.90;16.80
8709;DHT22;4391;48.678;9.280;2022-09-09T03:44:44;12.90;23.60
8709;DHT22;4391;48.678;9.280;2022-09-09T03:47:16;13.00;30.20
8709;DHT22;4391;48.678;9.280;2022-09-09T03:49:43;12.90;28.30
8709;DHT22;4391;48.678;9.280;2022-09-09T03:52:12;13.00;26.90
8709;DHT22;4391;48.678;9.280;2022-09-09T03:54:39;13.10;9.00
8709;DHT22;4391;48.678;9.280;2022-09-09T03:57:08;13.10;2.80
8709;DHT22;4391;48.678;9.280;2022-09-09T03:59:35;13.10;2.80
8709;DHT22;4391;48.678;9.280;2022-09-09T04:02:02;13.10;2.50
8709;DHT22;4391;48.678;9.280;2022-09-09T04:04:29;13.20;1.00
8709;DHT22;4391;48.678;9.280;2022-09-09T04:06:56;13.10;1.00
8709;DHT22;4391;48.678;9.280;2022-09-09T04:09:24;13.20;1.00
8709;DHT22;4391;48.678;9.280;2022-09-09T04:11:51;13.30;1.00
8709;DHT22;4391;48.678;9.280;2022-09-09T04:14:20;13.40;1.00
8709;DHT22;4391;48.678;9.280;2022-09-09T04:16:47;13.40;1.00
8709;DHT22;4391;48.678;9.280;2022-09-09T04:19:14;13.50;1.00
8709;DHT22;4391;48.678;9.280;2022-09-09T04:21:41;13.60;1.00
8709;DHT22;4391;48.678;9.280;2022-09-09T04:24:08;13.60;1.00
8709;DHT22;4391;48.678;9.280;2022-09-09T04:26:37;13.60;1.00
8709;DHT22;4391;48.678;9.280;2022-09-09T04:29:04;13.60;1.00
8709;DHT22;4391;48.678;9.280;2022-09-09T04:31:32;13.50;1.00
8709;DHT22;4391;48.678;9.280;2022-09-09T04:33:59;13.50;1.00
8709;DHT22;4391;48.678;9.280;2022-09-09T04:36:30;13.50;1.00
8709;DHT22;4391;48.678;9.280;2022-09-09T04:38:57;13.50;1.00
8709;DHT22;4391;48.678;9.280;2022-09-09T04:41:24;13.50;1.00
8709;DHT22;4391;48.678;9.280;2022-09-09T04:43:52;13.60;1.00
8709;DHT22;4391;48.678;9.280;2022-09-09T04:46:19;13.60;1.00
8709;DHT22;4391;48.678;9.280;2022-09-09T04:48:46;13.60;1.00
8709;DHT22;4391;48.678;9.280;2022-09-09T04:51:15;13.70;1.00
8709;DHT22;4391;48.678;9.280;2022-09-09T04:53:42;13.80;1.00
8709;DHT22;4391;48.678;9.280;2022-09-09T04:56:10;13.80;1.00
8709;DHT22;4391;48.678;9.280;2022-09-09T04:58:38;13.70;1.00
8709;DHT22;4391;48.678;9.280;2022-09-09T05:01:08;13.70;1.00
8709;DHT22;4391;48.678;9.280;2022-09-09T05:03:35;13.70;1.00
8709;DHT22;4391;48.678;9.280;2022-09-09T05:06:05;13.80;1.00
8709;DHT22;4391;48.678;9.280;2022-09-09T05:08:32;13.80;1.00
8709;DHT22;4391;48.678;9.280;2022-09-09T05:10:59;14.00;1.00
8709;DHT22;4391;48.678;9.280;2022-09-09T05:13:26;14.10;1.00
8709;DHT22;4391;48.678;9.280;2022-09-09T05:15:53;14.20;1.00
8709;DHT22;4391;48.678;9.280;2022-09-09T05:18:22;14.20;1.00
8709;DHT22;4391;48.678;9.280;2022-09-09T05:20:49;14.20;1.00
8709;DHT22;4391;48.678;9.280;2022-09-09T05:23:16;14.20;1.00
8709;DHT22;4391;48.678;9.280;2022-09-09T05:25:43;14.20;1.00
8709;DHT22;4391;48.678;9.280;2022-09-09T05:28:12;14.30;1.00
8709;DHT22;4391;48.678;9.280;2022-09-09T05:30:38;14.40;1.00
8709;DHT22;4391;48.678;9.280;2022-09-09T05:33:05;14.40;1.00
8709;DHT22;4391;48.678;9.280;2022-09-09T05:35:36;14.40;1.00
8709;DHT22;4391;48.678;9.280;2022-09-09T05:38:03;14.50;1.00
8709;DHT22;4391;48.678;9.280;2022-09-09T05:40:30;14.60;1.00
8709;DHT22;4391;48.678;9.280;2022-09-09T05:43:00;14.80;1.00
8709;DHT22;4391;48.678;9.280;2022-09-09T05:45:27;15.00;1.00
8709;DHT22;4391;48.678;9.280;2022-09-09T05:47:54;15.10;1.00
8709;DHT22;4391;48.678;9.280;2022-09-09T05:50:20;15.30;1.00
8709;DHT22;4391;48.678;9.280;2022-09-09T05:52:49;15.40;1.00
8709;DHT22;4391;48.678;9.280;2022-09-09T05:55:15;15.50;1.00
8709;DHT22;4391;48.678;9.280;2022-09-09T05:57:48;15.50;1.00
8709;DHT22;4391;48.678;9.280;2022-09-09T06:00:15;15.50;1.00
8709;DHT22;4391;48.678;9.280;2022-09-09T06:02:42;15.50;1.00
8709;DHT22;4391;48.678;9.280;2022-09-09T06:05:09;15.50;1.00
8709;DHT22;4391;48.678;9.280;2022-09-09T06:07:37;15.60;1.00
8709;DHT22;4391;48.678;9.280;2022-09-09T06:10:09;15.60;1.00
8709;DHT22;4391;48.678;9.280;2022-09-09T06:12:36;15.60;1.00
8709;DHT22;4391;48.678;9.280;2022-09-09T06:15:03;15.60;1.00
8709;DHT22;4391;48.678;9.280;2022-09-09T06:17:30;15.60;1.00
8709;DHT22;4391;48.678;9.280;2022-09-09T06:19:57;15.70;1.00
8709;DHT22;4391;48.678;9.280;2022-09-09T06:22:24;15.70;1.00
8709;DHT22;4391;48.678;9.280;2022-09-09T06:24:51;15.80;1.00
8709;DHT22;4391;48.678;9.280;2022-09-09T06:27:20;15.80;99.90
8709;DHT22;4391;48.678;9.280;2022-09-09T06:29:47;15.80;1.00
8709;DHT22;4391;48.678;9.280;2022-09-09T06:32:14;16.00;1.00
8709;DHT22;4391;48.678;9.280;2022-09-09T06:34:44;15.90;99.90
8709;DHT22;4391;48.678;9.280;2022-09-09T06:37:10;16.10;1.00
8709;DHT22;4391;48.678;9.280;2022-09-09T06:39:38;16.00;99.90
8709;DHT22;4391;48.678;9.280;2022-09-09T06:42:05;16.30;99.90
8709;DHT22;4391;48.678;9.280;2022-09-09T06:44:35;16.30;99.90
8709;DHT22;4391;48.678;9.280;2022-09-09T06:47:02;16.40;99.90
8709;DHT22;4391;48.678;9.280;2022-09-09T06:49:29;16.40;99.90
8709;DHT22;4391;48.678;9.280;2022-09-09T06:51:56;16.50;99.90
8709;DHT22;4391;48.678;9.280;2022-09-09T06:54:27;16.60;99.90
8709;DHT22;4391;48.678;9.280;2022-09-09T06:56:54;16.70;99.90
8709;DHT22;4391;48.678;9.280;2022-09-09T06:59:21;16.90;99.90
8709;DHT22;4391;48.678;9.280;2022-09-09T07:01:49;17.00;1.00
8709;DHT22;4391;48.678;9.280;2022-09-09T07:04:17;17.20;99.90
8709;DHT22;4391;48.678;9.280;2022-09-09T07:06:45;17.20;99.90
8709;DHT22;4391;48.678;9.280;2022-09-09T07:09:14;17.30;1.00
8709;DHT22;4391;48.678;9.280;2022-09-09T07:11:43;17.40;99.90
8709;DHT22;4391;48.678;9.280;2022-09-09T07:14:11;17.60;1.00
8709;DHT22;4391;48.678;9.280;2022-09-09T07:16:39;17.80;99.90
8709;DHT22;4391;48.678;9.280;2022-09-09T07:19:08;18.10;99.90
8709;DHT22;4391;48.678;9.280;2022-09-09T07:21:35;18.40;99.90
8709;DHT22;4391;48.678;9.280;2022-09-09T07:24:02;18.50;99.90
8709;DHT22;4391;48.678;9.280;2022-09-09T07:26:33;18.40;99.90
8709;DHT22;4391;48.678;9.280;2022-09-09T07:29:00;18.60;99.90
8709;DHT22;4391;48.678;9.280;2022-09-09T07:31:29;18.60;99.90
8709;DHT22;4391;48.678;9.280;2022-09-09T07:33:56;18.60;99.90
8709;DHT22;4391;48.678;9.280;2022-09-09T07:36:25;18.60;99.90
8709;DHT22;4391;48.678;9.280;2022-09-09T07:38:54;18.60;99.90
8709;DHT22;4391;48.678;9.280;2022-09-09T07:41:23;18.70;99.90
8709;DHT22;4391;48.678;9.280;2022-09-09T07:43:51;18.80;99.90
8709;DHT22;4391;48.678;9.280;2022-09-09T07:46:20;18.80;99.90
8709;DHT22;4391;48.678;9.280;2022-09-09T07:48:49;18.90;99.90
8709;DHT22;4391;48.678;9.280;2022-09-09T07:51:17;18.90;1.00
8709;DHT22;4391;48.678;9.280;2022-09-09T07:53:46;18.80;1.00
8709;DHT22;4391;48.678;9.280;2022-09-09T07:56:15;18.80;1.00
8709;DHT22;4391;48.678;9.280;2022-09-09T07:58:45;19.00;1.00
8709;DHT22;4391;48.678;9.280;2022-09-09T08:01:14;19.10;99.90
8709;DHT22;4391;48.678;9.280;2022-09-09T08:03:41;19.30;99.90
8709;DHT22;4391;48.678;9.280;2022-09-09T08:06:10;19.50;99.90
8709;DHT22;4391;48.678;9.280;2022-09-09T08:08:38;19.70;99.90
8709;DHT22;4391;48.678;9.280;2022-09-09T08:11:10;20.10;99.90
8709;DHT22;4391;48.678;9.280;2022-09-09T08:13:38;20.50;1.30
8709;DHT22;4391;48.678;9.280;2022-09-09T08:16:07;20.60;1.00
8709;DHT22;4391;48.678;9.280;2022-09-09T08:18:34;20.60;1.00
8709;DHT22;4391;48.678;9.280;2022-09-09T08:21:09;20.30;1.00
8709;DHT22;4391;48.678;9.280;2022-09-09T08:23:38;20.00;1.00
8709;DHT22;4391;48.678;9.280;2022-09-09T08:26:09;19.90;1.00
8709;DHT22;4391;48.678;9.280;2022-09-09T08:28:36;19.60;1.00
8709;DHT22;4391;48.678;9.280;2022-09-09T08:31:11;19.30;2.00
8709;DHT22;4391;48.678;9.280;2022-09-09T08:33:39;19.10;99.90
8709;DHT22;4391;48.678;9.280;2022-09-09T08:36:09;19.00;99.90
8709;DHT22;4391;48.678;9.280;2022-09-09T08:38:37;19.30;99.90
8709;DHT22;4391;48.678;9.280;2022-09-09T08:41:19;19.50;1.00
8709;DHT22;4391;48.678;9.280;2022-09-09T08:43:51;19.60;38.30
8709;DHT22;4391;48.678;9.280;2022-09-09T08:46:27;19.80;99.90
8709;DHT22;4391;48.678;9.280;2022-09-09T08:49:01;20.10;1.00
8709;DHT22;4391;48.678;9.280;2022-09-09T08:51:31;20.60;1.00
8709;DHT22;4391;48.678;9.280;2022-09-09T08:54:00;21.00;1.00
8709;DHT22;4391;48.678;9.280;2022-09-09T08:56:32;21.40;99.90
8709;DHT22;4391;48.678;9.280;2022-09-09T08:59:00;21.90;99.90
8709;DHT22;4391;48.678;9.280;2022-09-09T09:01:44;22.20;99.90
8709;DHT22;4391;48.678;9.280;2022-09-09T09:04:33;22.70;99.90
8709;DHT22;4391;48.678;9.280;2022-09-09T09:07:09;22.60;99.90
8709;DHT22;4391;48.678;9.280;2022-09-09T09:09:46;22.60;99.90
8709;DHT22;4391;48.678;9.280;2022-09-09T09:12:21;22.90;99.90
8709;DHT22;4391;48.678;9.280;2022-09-09T09:14:49;22.70;99.90
8709;DHT22;4391;48.678;9.280;2022-09-09T09:17:18;22.50;99.90
8709;DHT22;4391;48.678;9.280;2022-09-09T09:19:47;22.40;99.90
8709;DHT22;4391;48.678;9.280;2022-09-09T09:22:18;22.70;99.90
8709;DHT22;4391;48.678;9.280;2022-09-09T09:24:51;23.00;99.90
8709;DHT22;4391;48.678;9.280;2022-09-09T09:27:29;23.20;99.90
8709;DHT22;4391;48.678;9.280;2022-09-09T09:29:59;23.40;99.90
8709;DHT22;4391;48.678;9.280;2022-09-09T09:32:30;23.70;99.90
8709;DHT22;4391;48.678;9.280;2022-09-09T09:34:58;24.20;99.90
8709;DHT22;4391;48.678;9.280;2022-09-09T09:37:32;24.80;99.90
8709;DHT22;4391;48.678;9.280;2022-09-09T09:40:08;25.60;99.90
8709;DHT22;4391;48.678;9.280;2022-09-09T09:42:37;26.10;99.90
8709;DHT22;4391;48.678;9.280;2022-09-09T09:45:12;25.00;99.90
8709;DHT22;4391;48.678;9.280;2022-09-09T09:47:41;24.20;99.90
8709;DHT22;4391;48.678;9.280;2022-09-09T09:50:16;24.30;99.90
8709;DHT22;4391;48.678;9.280;2022-09-09T09:52:54;25.00;99.90
8709;DHT22;4391;48.678;9.280;2022-09-09T09:55:22;25.50;99.90
8709;DHT22;4391;48.678;9.280;2022-09-09T09:57:51;25.90;99.90
8709;DHT22;4391;48.678;9.280;2022-09-09T10:00:20;25.70;99.90
8709;DHT22;4391;48.678;9.280;2022-09-09T10:02:48;25.40;99.90
8709;DHT22;4391;48.678;9.280;2022-09-09T10:05:19;25.10;99.90
8709;DHT22;4391;48.678;9.280;2022-09-09T10:07:46;24.90;99.90
8709;DHT22;4391;48.678;9.280;2022-09-09T10:10:20;25.10;99.90
8709;DHT22;4391;48.678;9.280;2022-09-09T10:12:58;25.30;99.90
8709;DHT22;4391;48.678;9.280;2022-09-09T10:15:36;24.80;99.90
8709;DHT22;4391;48.678;9.280;2022-09-09T10:18:16;24.50;99.90
8709;DHT22;4391;48.678;9.280;2022-09-09T10:20:59;24.00;99.90
8709;DHT22;4391;48.678;9.280;2022-09-09T10:23:44;23.80;99.90
8709;DHT22;4391;48.678;9.280;2022-09-09T10:26:22;24.70;99.90
8709;DHT22;4391;48.678;9.280;2022-09-09T10:29:13;24.90;99.90
8709;DHT22;4391;48.678;9.280;2022-09-09T10:31:48;24.60;99.90
8709;DHT22;4391;48.678;9.280;2022-09-09T10:34:23;24.20;99.90
8709;DHT22;4391;48.678;9.280;2022-09-09T10:36:56;24.50;99.90
8709;DHT22;4391;48.678;9.280;2022-09-09T10:39:33;25.60;99.90
8709;DHT22;4391;48.678;9.280;2022-09-09T10:42:05;25.30;99.90
8709;DHT22;4391;48.678;9.280;2022-09-09T10:44:46;26.70;99.90
8709;DHT22;4391;48.678;9.280;2022-09-09T10:47:49;28.30;99.90
8709;DHT22;4391;48.678;9.280;2022-09-09T10:50:40;29.30;99.90
8709;DHT22;4391;48.678;9.280;2022-09-09T10:53:16;28.50;99.90
8709;DHT22;4391;48.678;9.280;2022-09-09T10:55:55;27.30;99.90
8709;DHT22;4391;48.678;9.280;2022-09-09T10:58:27;28.40;99.90
8709;DHT22;4391;48.678;9.280;2022-09-09T11:00:59;29.20;99.90
8709;DHT22;4391;48.678;9.280;2022-09-09T11:03:28;28.50;99.90
8709;DHT22;4391;48.678;9.280;2022-09-09T11:06:01;26.90;99.90
8709;DHT22;4391;48.678;9.280;2022-09-09T11:08:34;26.70;99.90
8709;DHT22;4391;48.678;9.280;2022-09-09T11:11:03;26.00;99.90
8709;DHT22;4391;48.678;9.280;2022-09-09T11:13:39;26.80;99.90
8709;DHT22;4391;48.678;9.280;2022-09-09T11:16:20;26.50;99.90
8709;DHT22;4391;48.678;9.280;2022-09-09T11:18:49;26.00;99.90
8709;DHT22;4391;48.678;9.280;2022-09-09T11:21:21;24.90;99.90
8709;DHT22;4391;48.678;9.280;2022-09-09T11:23:52;24.10;99.90
8709;DHT22;4391;48.678;9.280;2022-09-09T11:26:28;22.70;99.90
8709;DHT22;4391;48.678;9.280;2022-09-09T11:29:06;21.00;1.00
8709;DHT22;4391;48.678;9.280;2022-09-09T11:31:45;19.80;1.00
8709;DHT22;4391;48.678;9.280;2022-09-09T11:34:44;18.70;99.90
8709;DHT22;4391;48.678;9.280;2022-09-09T11:37:39;17.90;99.90
8709;DHT22;4391;48.678;9.280;2022-09-09T11:40:17;17.50;1.00
8709;DHT22;4391;48.678;9.280;2022-09-09T11:42:45;17.20;1.00
8709;DHT22;4391;48.678;9.280;2022-09-09T11:45:24;17.30;1.00
8709;DHT22;4391;48.678;9.280;2022-09-09T11:47:56;17.10;1.00
8709;DHT22;4391;48.678;9.280;2022-09-09T11:50:32;17.50;1.00
8709;DHT22;4391;48.678;9.280;2022-09-09T11:53:23;18.90;99.90
8709;DHT22;4391;48.678;9.280;2022-09-09T11:56:03;20.60;99.90
8709;DHT22;4391;48.678;9.280;2022-09-09T11:58:37;20.90;62.60
8709;DHT22;4391;48.678;9.280;2022-09-09T12:01:25;21.10;1.00
8709;DHT22;4391;48.678;9.280;2022-09-09T12:06:51;21.80;1.00
8709;DHT22;4391;48.678;9.280;2022-09-09T12:09:23;21.50;1.00
8709;DHT22;4391;48.678;9.280;2022-09-09T12:11:52;21.60;1.00
8709;DHT22;4391;48.678;9.280;2022-09-09T12:14:34;21.60;1.00
8709;DHT22;4391;48.678;9.280;2022-09-09T12:17:10;23.80;1.00
8709;DHT22;4391;48.678;9.280;2022-09-09T12:19:45;25.40;1.00
8709;DHT22;4391;48.678;9.280;2022-09-09T12:22:20;25.90;1.00
8709;DHT22;4391;48.678;9.280;2022-09-09T12:24:56;27.60;99.90
8709;DHT22;4391;48.678;9.280;2022-09-09T12:27:31;29.20;99.90
8709;DHT22;4391;48.678;9.280;2022-09-09T12:35:09;32.30;1.00
8709;DHT22;4391;48.678;9.280;2022-09-09T12:37:38;33.40;99.90
8709;DHT22;4391;48.678;9.280;2022-09-09T12:40:19;34.10;99.90
8709;DHT22;4391;48.678;9.280;2022-09-09T12:42:46;33.40;99.90
8709;DHT22;4391;48.678;9.280;2022-09-09T12:45:18;33.20;99.90
8709;DHT22;4391;48.678;9.280;2022-09-09T12:47:48;32.80;99.90
8709;DHT22;4391;48.678;9.280;2022-09-09T12:50:20;33.40;99.90
8709;DHT22;4391;48.678;9.280;2022-09-09T12:52:49;32.40;99.90
8709;DHT22;4391;48.678;9.280;2022-09-09T12:55:18;31.30;99.90
8709;DHT22;4391;48.678;9.280;2022-09-09T12:57:45;29.00;99.90
8709;DHT22;4391;48.678;9.280;2022-09-09T13:00:16;27.00;99.90
8709;DHT22;4391;48.678;9.280;2022-09-09T13:02:50;25.40;99.90
8709;DHT22;4391;48.678;9.280;2022-09-09T13:05:21;24.50;99.90
8709;DHT22;4391;48.678;9.280;2022-09-09T13:07:48;23.80;99.90
8709;DHT22;4391;48.678;9.280;2022-09-09T13:10:22;23.90;99.90
8709;DHT22;4391;48.678;9.280;2022-09-09T13:12:50;25.20;99.90
8709;DHT22;4391;48.678;9.280;2022-09-09T13:15:21;25.60;99.90
8709;DHT22;4391;48.678;9.280;2022-09-09T13:17:53;25.10;99.90
8709;DHT22;4391;48.678;9.280;2022-09-09T13:20:23;24.50;99.90
8709;DHT22;4391;48.678;9.280;2022-09-09T13:22:52;23.80;99.90
8709;DHT22;4391;48.678;9.280;2022-09-09T13:25:23;23.20;99.90
8709;DHT22;4391;48.678;9.280;2022-09-09T13:27:57;22.90;99.90
8709;DHT22;4391;48.678;9.280;2022-09-09T13:30:27;22.60;99.90
8709;DHT22;4391;48.678;9.280;2022-09-09T13:33:21;23.00;99.90
8709;DHT22;4391;48.678;9.280;2022-09-09T13:35:52;23.80;99.90
8709;DHT22;4391;48.678;9.280;2022-09-09T13:38:20;26.60;99.90
8709;DHT22;4391;48.678;9.280;2022-09-09T13:40:55;27.90;99.90
8709;DHT22;4391;48.678;9.280;2022-09-09T13:43:25;28.40;99.90
8709;DHT22;4391;48.678;9.280;2022-09-09T13:45:58;29.70;99.90
8709;DHT22;4391;48.678;9.280;2022-09-09T13:48:26;30.20;99.90
8709;DHT22;4391;48.678;9.280;2022-09-09T13:51:00;31.10;99.90
8709;DHT22;4391;48.678;9.280;2022-09-09T13:53:27;31.30;99.90
8709;DHT22;4391;48.678;9.280;2022-09-09T13:55:54;32.00;99.90
8709;DHT22;4391;48.678;9.280;2022-09-09T13:58:22;31.70;99.90
8709;DHT22;4391;48.678;9.280;2022-09-09T14:00:51;31.80;99.90
8709;DHT22;4391;48.678;9.280;2022-09-09T14:03:18;31.90;99.90
8709;DHT22;4391;48.678;9.280;2022-09-09T14:05:45;31.90;99.90
8709;DHT22;4391;48.678;9.280;2022-09-09T14:08:23;31.90;99.90
8709;DHT22;4391;48.678;9.280;2022-09-09T14:10:51;31.20;99.90
8709;DHT22;4391;48.678;9.280;2022-09-09T14:13:21;31.80;99.90
8709;DHT22;4391;48.678;9.280;2022-09-09T14:15:48;32.40;99.90
8709;DHT22;4391;48.678;9.280;2022-09-09T14:18:16;33.00;99.90
8709;DHT22;4391;48.678;9.280;2022-09-09T14:20:44;32.20;99.90
8709;DHT22;4391;48.678;9.280;2022-09-09T14:23:12;32.10;99.90
8709;DHT22;4391;48.678;9.280;2022-09-09T14:25:43;30.90;99.90
8709;DHT22;4391;48.678;9.280;2022-09-09T14:28:11;29.20;99.90
8709;DHT22;4391;48.678;9.280;2022-09-09T14:30:38;27.90;99.90
8709;DHT22;4391;48.678;9.280;2022-09-09T14:33:06;27.70;99.90
8709;DHT22;4391;48.678;9.280;2022-09-09T14:35:34;27.60;99.90
8709;DHT22;4391;48.678;9.280;2022-09-09T14:38:02;28.60;99.90
8709;DHT22;4391;48.678;9.280;2022-09-09T14:40:29;28.80;99.90
8709;DHT22;4391;48.678;9.280;2022-09-09T14:42:58;29.80;99.90
8709;DHT22;4391;48.678;9.280;2022-09-09T14:45:25;30.40;99.90
8709;DHT22;4391;48.678;9.280;2022-09-09T14:47:52;31.10;99.90
8709;DHT22;4391;48.678;9.280;2022-09-09T14:50:20;30.90;99.90
8709;DHT22;4391;48.678;9.280;2022-09-09T14:52:48;30.50;99.90
8709;DHT22;4391;48.678;9.280;2022-09-09T14:55:16;30.20;99.90
8709;DHT22;4391;48.678;9.280;2022-09-09T14:57:42;29.40;99.90
8709;DHT22;4391;48.678;9.280;2022-09-09T15:00:11;30.40;99.90
8709;DHT22;4391;48.678;9.280;2022-09-09T15:02:38;30.30;99.90
8709;DHT22;4391;48.678;9.280;2022-09-09T15:05:06;30.60;99.90
8709;DHT22;4391;48.678;9.280;2022-09-09T15:07:33;30.80;99.90
8709;DHT22;4391;48.678;9.280;2022-09-09T15:10:01;30.70;99.90
8709;DHT22;4391;48.678;9.280;2022-09-09T15:12:28;30.60;99.90
8709;DHT22;4391;48.678;9.280;2022-09-09T15:14:55;30.30;99.90
8709;DHT22;4391;48.678;9.280;2022-09-09T15:17:23;30.00;99.90
8709;DHT22;4391;48.678;9.280;2022-09-09T15:19:52;29.00;99.90
8709;DHT22;4391;48.678;9.280;2022-09-09T15:22:20;29.20;99.90
8709;DHT22;4391;48.678;9.280;2022-09-09T15:24:47;29.40;99.90
8709;DHT22;4391;48.678;9.280;2022-09-09T15:27:14;29.40;99.90
8709;DHT22;4391;48.678;9.280;2022-09-09T15:29:41;28.10;99.90
8709;DHT22;4391;48.678;9.280;2022-09-09T15:32:09;26.90;99.90
8709;DHT22;4391;48.678;9.280;2022-09-09T15:34:38;26.90;99.90
8709;DHT22;4391;48.678;9.280;2022-09-09T15:37:05;26.30;99.90
8709;DHT22;4391;48.678;9.280;2022-09-09T15:39:32;26.30;99.90
8709;DHT22;4391;48.678;9.280;2022-09-09T15:41:59;26.50;99.90
8709;DHT22;4391;48.678;9.280;2022-09-09T15:44:27;27.00;99.90
8709;DHT22;4391;48.678;9.280;2022-09-09T15:46:54;27.30;99.90
8709;DHT22;4391;48.678;9.280;2022-09-09T15:49:22;26.80;99.90
8709;DHT22;4391;48.678;9.280;2022-09-09T15:51:52;25.40;99.90
8709;DHT22;4391;48.678;9.280;2022-09-09T15:54:21;24.20;99.90
8709;DHT22;4391;48.678;9.280;2022-09-09T15:56:52;23.40;99.90
8709;DHT22;4391;48.678;9.280;2022-09-09T15:59:20;22.80;99.90
8709;DHT22;4391;48.678;9.280;2022-09-09T16:01:47;22.30;99.90
8709;DHT22;4391;48.678;9.280;2022-09-09T16:04:17;21.90;99.90
8709;DHT22;4391;48.678;9.280;2022-09-09T16:06:49;21.60;99.90
8709;DHT22;4391;48.678;9.280;2022-09-09T16:09:18;21.50;99.90
8709;DHT22;4391;48.678;9.280;2022-09-09T16:11:45;21.30;99.90
8709;DHT22;4391;48.678;9.280;2022-09-09T16:14:13;21.20;99.90
8709;DHT22;4391;48.678;9.280;2022-09-09T16:16:42;21.00;99.90
8709;DHT22;4391;48.678;9.280;2022-09-09T16:19:10;20.90;99.90
8709;DHT22;4391;48.678;9.280;2022-09-09T16:21:39;20.80;99.90
8709;DHT22;4391;48.678;9.280;2022-09-09T16:24:08;20.60;99.90
8709;DHT22;4391;48.678;9.280;2022-09-09T16:26:38;20.60;99.90
8709;DHT22;4391;48.678;9.280;2022-09-09T16:29:06;20.50;99.90
8709;DHT22;4391;48.678;9.280;2022-09-09T16:31:34;20.60;99.90
8709;DHT22;4391;48.678;9.280;2022-09-09T16:34:01;20.40;99.90
8709;DHT22;4391;48.678;9.280;2022-09-09T16:36:31;20.30;99.90